Time;durP1;ratioP1;P1;durP2;ratioP2;P2;SDS_P1;SDS_P2;PMS_P1;PMS_P2;Temp;Humidity;BMP_temperature;BMP_pressure;BME280_temperature;BME280_humidity;BME280_pressure;Samples;Min_cycle;Max_cycle;Signal;HPM_P1;HPM_P2
2022/10/19 00:01:18;;;;;;;6.05;1.98;;;9.50;99.90;;;;;;4964325;28;20042;-85
2022/10/19 00:03:45;;;;;;;6.60;2.20;;;9.40;99.90;;;;;;4976172;28;20472;-85
2022/10/19 00:06:18;;;;;;;6.93;2.10;;;9.40;99.90;;;;;;4986268;28;20137;-85
2022/10/19 00:08:44;;;;;;;7.93;2.38;;;9.30;99.90;;;;;;4961690;28;20053;-84
2022/10/19 00:11:10;;;;;;;7.97;2.15;;;9.30;99.90;;;;;;4988735;28;20129;-85
2022/10/19 00:13:37;;;;;;;6.20;2.20;;;9.20;99.90;;;;;;4989481;28;20038;-85
2022/10/19 00:16:11;;;;;;;7.82;2.00;;;9.20;99.90;;;;;;4988568;28;20046;-85
2022/10/19 00:18:36;;;;;;;3.55;1.85;;;9.20;99.90;;;;;;4988348;28;20069;-85
2022/10/19 00:21:07;;;;;;;5.43;1.90;;;9.10;99.90;;;;;;4988458;28;20050;-85
2022/10/19 00:23:33;;;;;;;7.20;2.00;;;9.10;99.90;;;;;;4989029;28;20493;-85
2022/10/19 00:25:59;;;;;;;6.75;2.47;;;9.00;99.90;;;;;;4987930;28;20046;-85
2022/10/19 00:28:25;;;;;;;9.60;2.30;;;8.90;99.90;;;;;;4987070;28;20086;-85
2022/10/19 00:30:51;;;;;;;6.35;2.20;;;8.90;99.90;;;;;;4987986;28;20057;-85
2022/10/19 00:33:21;;;;;;;6.65;2.15;;;8.90;99.90;;;;;;4976850;28;20046;-85
2022/10/19 00:35:51;;;;;;;9.52;2.75;;;8.80;99.90;;;;;;4980683;28;20042;-85
2022/10/19 00:38:20;;;;;;;11.90;2.47;;;8.80;99.90;;;;;;4972064;28;20082;-85
2022/10/19 00:40:47;;;;;;;6.97;2.55;;;8.80;99.90;;;;;;4988405;28;20046;-85
2022/10/19 00:43:19;;;;;;;7.70;2.63;;;8.90;99.90;;;;;;4988914;28;20055;-85
2022/10/19 00:45:44;;;;;;;7.70;2.53;;;8.80;99.90;;;;;;4975540;28;20043;-85
2022/10/19 00:48:16;;;;;;;6.32;2.55;;;8.90;99.90;;;;;;4975964;28;20096;-85
2022/10/19 00:50:42;;;;;;;5.95;2.45;;;9.00;99.90;;;;;;4987028;28;20050;-85
2022/10/19 00:53:09;;;;;;;11.07;3.10;;;8.80;99.90;;;;;;4969564;28;20046;-85
2022/10/19 00:55:36;;;;;;;5.53;2.47;;;8.80;99.90;;;;;;4974897;28;20045;-85
2022/10/19 00:58:02;;;;;;;6.18;2.55;;;9.00;99.90;;;;;;4987062;28;20053;-85
2022/10/19 01:00:28;;;;;;;10.80;2.47;;;8.90;99.90;;;;;;4982445;28;20054;-85
2022/10/19 01:02:55;;;;;;;9.23;2.70;;;8.90;99.90;;;;;;4973596;28;20054;-85
2022/10/19 01:05:21;;;;;;;7.25;2.88;;;8.90;99.90;;;;;;4961191;28;20074;-85
2022/10/19 01:07:46;;;;;;;3.97;2.78;;;8.90;99.90;;;;;;4977038;28;20141;-84
2022/10/19 01:10:12;;;;;;;5.20;2.90;;;9.00;99.90;;;;;;4987993;28;20548;-85
2022/10/19 01:12:55;;;;;;;5.38;2.80;;;9.00;99.90;;;;;;4987295;28;20531;-86
2022/10/19 01:15:30;;;;;;;;;;;9.00;99.90;;;;;;4953408;28;20480;-85
2022/10/19 01:18:17;;;;;;;11.27;2.92;;;9.10;99.90;;;;;;4978663;28;19928;-85
2022/10/19 01:21:08;;;;;;;5.72;2.90;;;9.10;99.90;;;;;;4968827;28;20086;-85
2022/10/19 01:24:12;;;;;;;11.63;3.50;;;9.10;99.90;;;;;;4972817;28;20527;-85
2022/10/19 01:27:02;;;;;;;8.65;3.15;;;9.10;99.90;;;;;;4987481;28;20065;-85
2022/10/19 01:29:53;;;;;;;6.72;2.90;;;9.10;99.90;;;;;;4981598;28;20043;-84
2022/10/19 01:32:37;;;;;;;8.05;3.13;;;9.20;99.90;;;;;;4984303;28;20035;-85
2022/10/19 01:35:12;;;;;;;7.57;2.90;;;9.20;99.90;;;;;;4986855;28;20111;-85
2022/10/19 01:37:43;;;;;;;7.30;2.97;;;9.20;99.90;;;;;;4987292;28;20049;-85
2022/10/19 01:40:30;;;;;;;8.70;3.05;;;9.20;99.90;;;;;;4973160;28;20055;-85
2022/10/19 01:43:11;;;;;;;4.50;3.05;;;9.20;99.90;;;;;;4973573;28;20048;-85
2022/10/19 01:45:57;;;;;;;7.90;3.00;;;9.20;99.90;;;;;;4956814;28;20598;-85
2022/10/19 01:48:29;;;;;;;4.70;2.75;;;9.30;99.90;;;;;;4987662;28;20341;-85
2022/10/19 01:51:00;;;;;;;;;;;9.30;99.90;;;;;;4987559;28;20739;-85
2022/10/19 01:53:29;;;;;;;9.68;3.05;;;9.30;99.90;;;;;;4987133;28;19929;-85
2022/10/19 01:55:57;;;;;;;7.47;3.20;;;9.40;99.90;;;;;;4968388;28;20038;-85
2022/10/19 01:58:30;;;;;;;6.80;2.83;;;9.30;99.90;;;;;;4968060;28;20043;-85
2022/10/19 02:01:00;;;;;;;9.00;2.97;;;9.40;99.90;;;;;;4983471;28;20049;-85
2022/10/19 02:03:27;;;;;;;4.35;2.70;;;9.40;99.90;;;;;;4971124;28;20078;-85
2022/10/19 02:05:55;;;;;;;8.88;2.63;;;9.40;99.90;;;;;;4985532;28;20416;-85
2022/10/19 02:08:29;;;;;;;6.45;2.80;;;9.40;99.90;;;;;;4984375;28;20112;-85
2022/10/19 02:10:56;;;;;;;4.15;2.83;;;9.40;99.90;;;;;;4987916;28;20129;-84
2022/10/19 02:13:25;;;;;;;5.97;2.60;;;9.50;99.90;;;;;;4975380;28;20469;-85
2022/10/19 02:15:53;;;;;;;8.63;2.60;;;9.50;99.90;;;;;;4973002;28;20806;-85
2022/10/19 02:18:25;;;;;;;6.53;2.60;;;9.50;99.90;;;;;;4972068;28;20567;-85
2022/10/19 02:20:51;;;;;;;12.27;2.97;;;9.50;99.90;;;;;;4989090;28;20496;-85
2022/10/19 02:23:20;;;;;;;10.70;2.70;;;9.50;99.90;;;;;;4975043;28;20069;-85
2022/10/19 02:25:46;;;;;;;11.63;2.70;;;9.70;99.90;;;;;;4991241;28;20405;-85
2022/10/19 02:28:12;;;;;;;6.35;2.67;;;9.50;99.90;;;;;;4989481;28;20042;-85
2022/10/19 02:30:38;;;;;;;5.15;2.45;;;9.50;99.90;;;;;;4990102;28;20146;-85
2022/10/19 02:33:03;;;;;;;6.43;2.70;;;9.60;99.90;;;;;;4984871;28;20046;-85
2022/10/19 02:35:30;;;;;;;8.13;2.90;;;9.60;99.90;;;;;;4990360;28;20362;-86
2022/10/19 02:38:00;;;;;;;6.90;3.03;;;9.90;99.90;;;;;;4971693;28;20093;-85
2022/10/19 02:40:28;;;;;;;10.65;2.60;;;10.40;99.90;;;;;;4972734;28;20497;-85
2022/10/19 02:43:00;;;;;;;7.82;2.70;;;9.60;99.90;;;;;;5000266;28;20556;-85
2022/10/19 02:45:29;;;;;;;7.97;2.70;;;9.50;99.90;;;;;;4974723;28;20038;-85
2022/10/19 02:48:00;;;;;;;6.25;2.22;;;9.50;99.90;;;;;;4967471;28;20041;-85
2022/10/19 02:50:27;;;;;;;9.57;2.70;;;9.70;99.90;;;;;;4978770;28;20432;-85
2022/10/19 02:52:52;;;;;;;8.57;3.13;;;9.40;99.90;;;;;;4973546;28;20049;-85
2022/10/19 02:55:18;;;;;;;8.07;2.90;;;9.40;99.90;;;;;;4990417;28;20042;-85
2022/10/19 02:57:44;;;;;;;6.82;2.78;;;9.40;99.90;;;;;;4987595;28;20457;-85
2022/10/19 03:00:10;;;;;;;4.63;2.55;;;9.40;99.90;;;;;;4986510;28;20043;-85
2022/10/19 03:02:36;;;;;;;5.18;2.28;;;9.30;99.90;;;;;;4984381;28;20417;-85
2022/10/19 03:05:03;;;;;;;4.03;2.17;;;9.40;99.90;;;;;;4955367;28;20043;-85
2022/10/19 03:07:29;;;;;;;5.15;2.30;;;9.40;99.90;;;;;;4961340;28;20042;-86
2022/10/19 03:09:54;;;;;;;9.45;2.88;;;9.30;99.90;;;;;;4980151;28;20041;-85
2022/10/19 03:12:20;;;;;;;4.15;2.80;;;9.40;99.90;;;;;;4971338;28;20129;-85
2022/10/19 03:14:46;;;;;;;7.78;2.92;;;9.40;99.90;;;;;;4987181;28;20034;-85
2022/10/19 03:17:11;;;;;;;6.20;2.58;;;9.40;99.90;;;;;;4978840;28;20046;-85
2022/10/19 03:19:37;;;;;;;5.97;2.33;;;9.40;99.90;;;;;;4988055;28;20469;-86
2022/10/19 03:22:03;;;;;;;4.45;2.45;;;9.40;99.90;;;;;;4972322;28;20067;-84
2022/10/19 03:24:30;;;;;;;7.22;2.55;;;9.50;99.90;;;;;;4990401;28;20136;-85
2022/10/19 03:26:56;;;;;;;5.30;2.40;;;9.50;99.90;;;;;;4987978;28;20045;-85
2022/10/19 03:29:21;;;;;;;7.53;2.60;;;9.50;99.90;;;;;;4977236;28;20054;-85
2022/10/19 03:31:47;;;;;;;6.35;2.80;;;9.50;99.90;;;;;;4985185;28;20134;-85
2022/10/19 03:34:13;;;;;;;6.05;2.75;;;9.70;99.90;;;;;;4974105;28;20440;-85
2022/10/19 03:36:39;;;;;;;10.93;2.50;;;9.50;99.90;;;;;;4990116;28;20038;-85
2022/10/19 03:39:13;;;;;;;6.75;2.22;;;9.50;99.90;;;;;;4989285;28;20066;-86
2022/10/19 03:41:39;;;;;;;6.40;3.00;;;9.50;99.90;;;;;;4958409;28;20504;-85
2022/10/19 03:44:07;;;;;;;6.45;2.20;;;9.60;99.90;;;;;;4986926;28;20046;-85
2022/10/19 03:46:34;;;;;;;6.95;2.92;;;9.60;99.90;;;;;;4972153;28;20049;-85
2022/10/19 03:49:00;;;;;;;9.23;2.67;;;9.60;99.90;;;;;;4955786;28;20038;-85
2022/10/19 03:51:27;;;;;;;6.45;2.40;;;9.60;99.90;;;;;;4970335;28;20050;-84
2022/10/19 03:53:56;;;;;;;6.88;2.20;;;9.50;99.90;;;;;;4987078;28;20042;-85
2022/10/19 03:56:24;;;;;;;4.95;2.20;;;9.60;99.90;;;;;;4989983;28;20054;-85
2022/10/19 03:58:51;;;;;;;6.38;2.30;;;9.50;99.90;;;;;;4988400;28;20056;-85
2022/10/19 04:01:25;;;;;;;4.50;2.53;;;9.50;99.90;;;;;;4989619;28;20086;-85
2022/10/19 04:04:02;;;;;;;8.20;2.65;;;9.50;99.90;;;;;;4987488;28;20058;-85
2022/10/19 04:06:30;;;;;;;4.10;1.92;;;9.50;99.90;;;;;;4970327;28;20485;-85
2022/10/19 04:08:57;;;;;;;8.70;2.38;;;9.50;99.90;;;;;;4985735;28;20157;-84
2022/10/19 04:11:25;;;;;;;5.82;1.80;;;9.60;99.90;;;;;;4971896;28;20046;-85
2022/10/19 04:13:52;;;;;;;7.30;2.30;;;9.50;99.90;;;;;;5002253;28;20057;-85
2022/10/19 04:16:19;;;;;;;7.32;2.00;;;10.00;99.90;;;;;;4972767;28;20081;-84
2022/10/19 04:18:45;;;;;;;6.13;1.98;;;9.90;99.90;;;;;;4988646;28;20043;-85
2022/10/19 04:21:30;;;;;;;3.72;2.00;;;10.30;99.90;;;;;;4989123;28;20050;-85
2022/10/19 04:23:59;;;;;;;7.78;2.80;;;9.60;99.90;;;;;;4974317;28;20493;-85
2022/10/19 04:26:25;;;;;;;6.82;2.20;;;9.40;99.90;;;;;;4977397;28;20049;-85
2022/10/19 04:28:51;;;;;;;4.18;2.28;;;9.60;99.90;;;;;;5003403;28;20051;-84
2022/10/19 04:31:16;;;;;;;5.07;2.15;;;9.00;99.90;;;;;;4986946;28;20047;-85
2022/10/19 04:33:42;;;;;;;5.63;1.85;;;9.50;99.90;;;;;;4987726;28;20144;-85
2022/10/19 04:36:10;;;;;;;6.95;1.85;;;9.90;99.90;;;;;;4976941;28;20059;-85
2022/10/19 04:38:36;;;;;;;10.02;2.10;;;9.50;99.90;;;;;;4968668;28;20116;-85
2022/10/19 04:41:05;;;;;;;10.65;2.47;;;9.80;99.90;;;;;;4985497;28;20057;-85
2022/10/19 04:43:31;;;;;;;5.28;1.95;;;9.50;99.90;;;;;;4968732;28;20057;-84
2022/10/19 04:45:56;;;;;;;6.40;2.40;;;9.50;99.90;;;;;;4988452;28;20534;-84
2022/10/19 04:48:22;;;;;;;5.68;2.17;;;9.50;99.90;;;;;;4989164;28;20045;-85
2022/10/19 04:50:47;;;;;;;6.15;2.33;;;9.50;99.90;;;;;;4972336;28;20433;-84
2022/10/19 04:53:13;;;;;;;6.32;2.38;;;9.50;99.90;;;;;;4986996;28;20042;-84
2022/10/19 04:55:42;;;;;;;7.32;2.30;;;9.50;99.90;;;;;;4988441;28;20507;-85
2022/10/19 04:58:08;;;;;;;7.07;2.17;;;10.40;99.90;;;;;;4970444;28;20043;-84
2022/10/19 05:00:33;;;;;;;4.35;2.08;;;9.50;99.90;;;;;;4986344;28;20049;-85
2022/10/19 05:02:59;;;;;;;4.45;2.10;;;9.40;99.90;;;;;;4986745;28;20046;-85
2022/10/19 05:05:25;;;;;;;7.30;2.55;;;9.50;99.90;;;;;;4987880;28;20132;-85
2022/10/19 05:07:51;;;;;;;8.13;1.83;;;9.50;99.90;;;;;;4988040;28;20121;-85
2022/10/19 05:10:17;;;;;;;11.52;2.30;;;9.40;99.90;;;;;;4988520;28;20054;-85
2022/10/19 05:12:42;;;;;;;4.10;1.73;;;9.50;99.90;;;;;;4967768;28;20089;-84
2022/10/19 05:15:08;;;;;;;2.92;1.80;;;9.40;99.90;;;;;;4969206;28;20047;-84
2022/10/19 05:17:34;;;;;;;5.78;2.13;;;9.40;99.90;;;;;;4979084;28;20043;-84
2022/10/19 05:20:00;;;;;;;7.40;2.05;;;9.50;99.90;;;;;;4983359;28;20104;-84
2022/10/19 05:22:25;;;;;;;6.05;1.65;;;9.40;99.90;;;;;;4973418;28;20390;-85
2022/10/19 05:24:51;;;;;;;7.55;2.25;;;9.50;99.90;;;;;;4980655;28;20053;-84
2022/10/19 05:27:16;;;;;;;8.80;2.10;;;9.50;99.90;;;;;;4970899;28;20039;-84
2022/10/19 05:29:42;;;;;;;4.88;1.60;;;9.50;99.90;;;;;;4986872;28;20035;-84
2022/10/19 05:32:07;;;;;;;4.97;2.13;;;9.10;99.90;;;;;;4967726;28;20034;-84
2022/10/19 05:34:33;;;;;;;11.63;2.17;;;9.60;99.90;;;;;;4971258;28;20042;-85
2022/10/19 05:36:59;;;;;;;8.05;1.73;;;10.30;99.90;;;;;;4984491;28;20074;-84
2022/10/19 05:39:24;;;;;;;17.80;2.55;;;9.70;99.90;;;;;;4988681;28;20045;-84
2022/10/19 05:41:50;;;;;;;4.15;1.60;;;9.80;99.90;;;;;;4988301;28;20089;-84
2022/10/19 05:44:19;;;;;;;6.30;2.33;;;9.80;99.90;;;;;;4980307;28;20046;-84
2022/10/19 05:46:45;;;;;;;4.55;1.70;;;9.80;99.90;;;;;;4969876;28;20043;-84
2022/10/19 05:49:12;;;;;;;8.05;1.83;;;9.90;99.90;;;;;;4969508;28;20042;-84
2022/10/19 05:51:38;;;;;;;3.95;1.55;;;10.40;99.90;;;;;;4972336;28;20122;-84
2022/10/19 05:54:04;;;;;;;9.02;1.90;;;10.00;99.90;;;;;;4969208;28;20199;-85
2022/10/19 05:56:31;;;;;;;6.32;1.90;;;10.00;99.90;;;;;;4969069;28;20071;-84
2022/10/19 05:58:59;;;;;;;3.13;1.40;;;9.90;99.90;;;;;;4976828;28;20121;-84
2022/10/19 06:01:26;;;;;;;3.80;1.55;;;10.00;99.90;;;;;;4956462;28;20457;-85
2022/10/19 06:03:54;;;;;;;8.13;1.65;;;9.90;99.90;;;;;;4970145;28;20141;-82
2022/10/19 06:06:20;;;;;;;10.35;1.48;;;9.90;99.90;;;;;;4982671;28;20050;-85
2022/10/19 06:08:46;;;;;;;7.80;1.52;;;9.90;99.90;;;;;;4973492;28;20078;-89
2022/10/19 06:11:13;;;;;;;8.85;2.10;;;9.90;99.90;;;;;;4988720;28;20083;-89
2022/10/19 06:13:40;;;;;;;5.00;2.15;;;9.80;99.90;;;;;;4987913;28;20054;-89
2022/10/19 06:16:07;;;;;;;8.32;1.70;;;9.80;99.90;;;;;;4987075;28;20045;-89
2022/10/19 06:18:33;;;;;;;8.95;2.30;;;9.80;99.90;;;;;;4965312;28;20043;-89
2022/10/19 06:21:05;;;;;;;8.82;1.52;;;9.80;99.90;;;;;;4968905;28;20077;-89
2022/10/19 06:23:31;;;;;;;7.07;1.88;;;9.70;99.90;;;;;;4985729;28;20055;-89
2022/10/19 06:25:57;;;;;;;7.07;1.45;;;9.70;99.90;;;;;;4987265;28;20050;-89
2022/10/19 06:28:23;;;;;;;5.07;1.48;;;9.80;99.90;;;;;;4985093;28;20401;-90
2022/10/19 06:30:48;;;;;;;8.27;2.10;;;9.80;99.90;;;;;;4989130;28;20519;-89
2022/10/19 06:33:14;;;;;;;10.48;1.83;;;9.80;99.90;;;;;;4985275;28;20157;-90
2022/10/19 06:35:41;;;;;;;17.38;1.92;;;9.80;99.90;;;;;;4969279;28;20043;-89
2022/10/19 06:38:08;;;;;;;6.80;2.08;;;9.90;99.90;;;;;;4953588;28;20161;-90
2022/10/19 06:40:34;;;;;;;9.35;2.00;;;9.90;99.90;;;;;;4970141;28;20046;-89
2022/10/19 06:43:00;;;;;;;5.57;2.17;;;10.90;99.90;;;;;;4969517;28;20119;-88
2022/10/19 06:45:26;;;;;;;12.35;2.00;;;10.00;99.90;;;;;;4958442;28;20513;-88
2022/10/19 06:47:51;;;;;;;13.32;1.92;;;10.20;99.90;;;;;;4952405;28;20047;-89
2022/10/19 06:50:17;;;;;;;8.65;1.38;;;10.10;99.90;;;;;;4968182;28;20501;-89
2022/10/19 06:52:43;;;;;;;10.65;1.58;;;10.10;99.90;;;;;;4967953;28;20464;-89
2022/10/19 06:55:08;;;;;;;6.63;1.55;;;10.20;99.90;;;;;;4953171;28;20047;-88
2022/10/19 06:57:34;;;;;;;8.73;1.95;;;10.90;99.90;;;;;;4953424;28;20038;-89
2022/10/19 07:00:00;;;;;;;4.85;2.00;;;10.80;99.90;;;;;;4959524;28;20051;-88
2022/10/19 07:02:25;;;;;;;9.50;1.83;;;10.40;99.90;;;;;;4974906;28;20133;-88
2022/10/19 07:04:51;;;;;;;10.32;1.42;;;10.40;99.90;;;;;;4990730;28;20049;-89
2022/10/19 07:07:17;;;;;;;8.25;1.63;;;;;;;;;;4981566;28;20046;-88
2022/10/19 07:09:42;;;;;;;5.10;1.83;;;10.50;99.90;;;;;;4974770;28;20053;-89
2022/10/19 07:12:09;;;;;;;11.35;1.83;;;10.50;99.90;;;;;;4984499;28;20047;-86
2022/10/19 07:14:38;;;;;;;7.57;1.75;;;10.60;99.90;;;;;;4977328;28;20075;-89
2022/10/19 07:17:09;;;;;;;7.88;1.63;;;10.60;99.90;;;;;;4976132;28;20141;-89
2022/10/19 07:19:35;;;;;;;11.65;2.05;;;10.70;99.90;;;;;;4971415;28;20602;-89
2022/10/19 07:22:00;;;;;;;8.40;1.95;;;10.70;99.90;;;;;;5003571;28;20053;-89
2022/10/19 07:24:26;;;;;;;7.05;1.70;;;10.80;99.90;;;;;;4970836;28;20225;-88
2022/10/19 07:26:51;;;;;;;7.47;1.80;;;10.80;99.90;;;;;;4971681;28;20382;-88
2022/10/19 07:29:17;;;;;;;5.72;1.55;;;10.80;99.90;;;;;;4990052;28;20042;-88
2022/10/19 07:31:43;;;;;;;9.70;1.92;;;10.90;99.90;;;;;;4990275;28;20084;-85
2022/10/19 07:34:12;;;;;;;4.72;1.45;;;10.90;99.90;;;;;;4990611;28;20666;-87
2022/10/19 07:36:43;;;;;;;9.75;1.58;;;11.00;99.90;;;;;;4989707;28;20407;-85
2022/10/19 07:39:09;;;;;;;7.13;1.70;;;11.00;99.90;;;;;;4990125;28;20066;-87
2022/10/19 07:41:35;;;;;;;7.72;2.00;;;11.10;99.90;;;;;;4989259;28;20058;-87
2022/10/19 07:44:01;;;;;;;6.53;1.63;;;11.10;99.90;;;;;;4954337;28;20074;-88
2022/10/19 07:46:32;;;;;;;7.85;1.92;;;11.20;99.90;;;;;;4971168;28;20508;-87
2022/10/19 07:48:57;;;;;;;7.18;1.58;;;11.30;99.90;;;;;;4954963;28;20501;-87
2022/10/19 07:51:23;;;;;;;7.20;1.30;;;11.30;99.90;;;;;;4971144;28;20130;-87
2022/10/19 07:53:49;;;;;;;10.48;1.60;;;11.30;99.90;;;;;;4971339;28;20046;-87
2022/10/19 07:56:18;;;;;;;9.20;1.70;;;11.40;99.90;;;;;;4970174;28;20532;-87
2022/10/19 07:58:44;;;;;;;9.02;1.70;;;12.00;99.90;;;;;;4989465;28;20404;-87
2022/10/19 08:01:18;;;;;;;10.38;1.90;;;11.50;99.90;;;;;;5006563;28;20062;-87
2022/10/19 08:03:45;;;;;;;7.57;1.55;;;11.50;99.90;;;;;;4989950;28;20834;-87
2022/10/19 08:06:13;;;;;;;7.72;1.88;;;12.30;99.90;;;;;;4989551;28;20052;-87
2022/10/19 08:08:39;;;;;;;7.65;2.20;;;11.70;99.90;;;;;;4989788;28;20050;-87
2022/10/19 08:11:17;;;;;;;9.57;1.83;;;11.70;99.90;;;;;;4988073;28;20085;-87
2022/10/19 08:13:43;;;;;;;5.30;1.58;;;11.80;99.90;;;;;;4970430;28;20052;-87
2022/10/19 08:16:36;;;;;;;8.20;1.73;;;11.80;99.90;;;;;;4970472;28;20066;-87
2022/10/19 08:19:10;;;;;;;8.88;2.10;;;12.00;99.90;;;;;;4969803;28;20424;-87
2022/10/19 08:21:37;;;;;;;10.15;1.73;;;12.00;99.90;;;;;;4969565;28;20054;-87
2022/10/19 08:24:03;;;;;;;11.82;1.55;;;12.80;99.90;;;;;;4954006;28;20050;-87
2022/10/19 08:26:31;;;;;;;8.25;1.75;;;12.10;99.90;;;;;;4953897;28;20087;-86
2022/10/19 08:29:08;;;;;;;6.97;1.90;;;12.20;99.90;;;;;;4962902;28;20050;-87
2022/10/19 08:31:34;;;;;;;8.88;2.25;;;12.20;99.90;;;;;;4989019;28;20050;-87
2022/10/19 08:34:00;;;;;;;10.50;1.40;;;12.30;99.90;;;;;;4990039;28;20169;-87
2022/10/19 08:36:26;;;;;;;11.95;1.75;;;12.30;99.90;;;;;;4975325;28;20129;-88
2022/10/19 08:38:52;;;;;;;8.73;2.08;;;12.50;99.90;;;;;;4954309;28;20051;-87
2022/10/19 08:41:25;;;;;;;5.65;1.70;;;12.60;99.90;;;;;;4969816;28;20715;-87
2022/10/19 08:44:19;;;;;;;10.60;1.77;;;12.60;99.90;;;;;;4969703;28;20408;-87
2022/10/19 08:47:12;;;;;;;10.20;1.80;;;12.50;99.90;;;;;;4969528;28;20476;-87
2022/10/19 08:49:38;;;;;;;6.85;1.58;;;12.50;99.90;;;;;;4969388;28;20054;-87
2022/10/19 08:52:10;;;;;;;7.82;1.50;;;12.50;99.90;;;;;;4969763;28;20086;-87
2022/10/19 08:54:56;;;;;;;;;;;12.60;99.90;;;;;;4969834;28;20046;-88
2022/10/19 08:57:46;;;;;;;5.88;1.38;;;12.60;99.90;;;;;;4944870;28;20399;-88
2022/10/19 09:00:27;;;;;;;9.52;2.20;;;12.60;99.90;;;;;;4989813;28;20055;-88
2022/10/19 09:03:10;;;;;;;10.65;1.77;;;12.70;99.90;;;;;;4969415;28;20089;-88
2022/10/19 09:05:41;;;;;;;8.43;1.35;;;12.70;99.90;;;;;;4969084;28;20060;-88
2022/10/19 09:08:10;;;;;;;8.45;1.30;;;12.80;99.90;;;;;;4969720;28;20051;-88
2022/10/19 09:10:39;;;;;;;8.50;2.13;;;12.80;99.90;;;;;;4968524;28;20276;-87
2022/10/19 09:13:26;;;;;;;9.35;2.08;;;12.80;99.90;;;;;;5000562;28;20123;-89
2022/10/19 09:15:54;;;;;;;5.50;1.73;;;12.80;99.90;;;;;;5001701;28;20127;-88
2022/10/19 09:18:31;;;;;;;10.18;1.58;;;12.80;99.90;;;;;;4952712;28;20050;-89
2022/10/19 09:21:13;;;;;;;6.68;1.38;;;12.80;99.90;;;;;;5000734;28;20089;-88
2022/10/19 09:23:42;;;;;;;6.25;1.40;;;12.80;99.90;;;;;;4984952;28;20105;-88
2022/10/19 09:26:15;;;;;;;6.22;1.30;;;12.80;99.90;;;;;;5001146;28;20568;-89
2022/10/19 09:29:09;;;;;;;8.30;1.35;;;12.80;99.90;;;;;;5001047;28;20050;-89
2022/10/19 09:31:42;;;;;;;8.57;1.45;;;12.80;99.90;;;;;;5000531;28;20093;-88
2022/10/19 09:34:12;;;;;;;;;;;12.90;99.90;;;;;;4952921;28;20058;-89
2022/10/19 09:36:42;;;;;;;8.60;1.40;;;12.90;99.90;;;;;;4968235;28;19922;-88
2022/10/19 09:39:12;;;;;;;9.18;1.83;;;12.90;99.90;;;;;;4968537;28;20046;-89
2022/10/19 09:41:48;;;;;;;9.27;1.50;;;12.90;99.90;;;;;;4968056;28;20648;-89
2022/10/19 09:44:14;;;;;;;8.35;1.50;;;12.90;99.90;;;;;;4968291;28;20138;-88
2022/10/19 09:46:50;;;;;;;7.95;1.75;;;12.90;99.90;;;;;;4968493;28;20095;-87
2022/10/19 09:49:17;;;;;;;9.10;1.98;;;13.00;99.90;;;;;;4951797;28;20505;-87
2022/10/19 09:51:50;;;;;;;2.83;1.00;;;13.10;99.90;;;;;;4983389;28;20092;-88
2022/10/19 09:54:33;;;;;;;12.00;1.33;;;13.00;99.90;;;;;;4984670;28;20047;-89
2022/10/19 09:57:02;;;;;;;5.70;1.20;;;13.50;99.90;;;;;;4967847;28;20050;-88
2022/10/19 09:59:33;;;;;;;8.02;1.67;;;13.10;99.90;;;;;;4967893;28;20108;-88
2022/10/19 10:02:17;;;;;;;8.07;1.40;;;13.10;99.90;;;;;;4952238;28;20359;-88
2022/10/19 10:05:05;;;;;;;9.63;1.83;;;13.20;99.90;;;;;;4968299;28;20627;-88
2022/10/19 10:07:36;;;;;;;12.95;1.58;;;13.20;99.90;;;;;;4974602;28;20153;-88
2022/10/19 10:10:09;;;;;;;7.07;1.38;;;13.20;99.90;;;;;;4988044;28;20354;-89
2022/10/19 10:12:36;;;;;;;3.55;1.40;;;13.20;99.90;;;;;;4989588;28;20053;-89
2022/10/19 10:15:04;;;;;;;7.78;1.70;;;13.20;99.90;;;;;;4988227;28;20453;-89
2022/10/19 10:17:30;;;;;;;5.97;1.63;;;13.20;99.90;;;;;;4968329;28;20043;-89
2022/10/19 10:19:59;;;;;;;5.35;1.05;;;13.30;99.90;;;;;;4967819;28;20046;-88
2022/10/19 10:22:31;;;;;;;3.55;1.08;;;13.30;99.90;;;;;;4974095;28;20066;-89
2022/10/19 10:24:56;;;;;;;5.57;1.20;;;13.30;99.90;;;;;;4987596;28;20129;-89
2022/10/19 10:27:35;;;;;;;6.47;1.83;;;14.00;99.90;;;;;;4971163;28;20129;-87
2022/10/19 10:30:14;;;;;;;6.63;1.40;;;13.30;99.90;;;;;;4969151;28;20062;-88
2022/10/19 10:32:50;;;;;;;5.55;1.52;;;13.30;99.90;;;;;;4965755;28;20081;-88
2022/10/19 10:35:20;;;;;;;5.47;1.20;;;13.40;99.90;;;;;;4992291;28;20060;-86
2022/10/19 10:37:47;;;;;;;6.32;1.45;;;13.40;99.90;;;;;;4991264;28;20101;-88
2022/10/19 10:40:30;;;;;;;6.13;1.50;;;13.50;99.90;;;;;;4990785;28;20115;-87
2022/10/19 10:43:03;;;;;;;5.43;1.35;;;13.60;99.90;;;;;;4984447;28;20518;-87
2022/10/19 10:45:33;;;;;;;3.47;1.45;;;13.70;99.90;;;;;;4977848;28;20073;-88
2022/10/19 10:48:13;;;;;;;6.22;1.67;;;13.50;99.90;;;;;;4996929;28;20050;-89
2022/10/19 10:50:39;;;;;;;9.60;1.98;;;13.50;99.90;;;;;;5011034;28;20045;-87
2022/10/19 10:53:26;;;;;;;10.35;2.22;;;13.50;99.90;;;;;;4986617;28;20054;-88
2022/10/19 10:55:56;;;;;;;9.05;2.20;;;14.10;99.90;;;;;;4981732;28;20456;-87
2022/10/19 10:58:34;;;;;;;6.13;1.50;;;13.40;99.90;;;;;;4975972;28;20153;-88
2022/10/19 11:01:06;;;;;;;6.97;1.60;;;13.40;99.90;;;;;;4967199;28;20046;-88
2022/10/19 11:03:34;;;;;;;4.35;1.33;;;13.50;99.90;;;;;;4988141;28;20085;-88
2022/10/19 11:06:03;;;;;;;5.68;1.77;;;13.70;99.90;;;;;;4980707;28;20081;-87
2022/10/19 11:08:50;;;;;;;5.07;1.58;;;13.40;99.90;;;;;;4995143;28;20047;-87
2022/10/19 11:11:34;;;;;;;8.90;1.83;;;13.40;99.90;;;;;;4990925;28;20558;-86
2022/10/19 11:14:24;;;;;;;8.70;2.28;;;13.50;99.90;;;;;;4992544;28;20148;-87
2022/10/19 11:16:53;;;;;;;5.38;1.95;;;13.50;99.90;;;;;;4990855;28;21103;-86
2022/10/19 11:19:50;;;;;;;6.15;1.77;;;13.50;99.90;;;;;;4990345;28;20348;-88
2022/10/19 11:22:27;;;;;;;7.65;1.92;;;13.70;99.90;;;;;;4944376;28;20186;-87
2022/10/19 11:25:18;;;;;;;7.68;1.70;;;13.70;99.90;;;;;;4971678;28;20051;-88
2022/10/19 11:28:22;;;;;;;5.35;1.40;;;13.60;99.90;;;;;;4971037;28;20054;-87
2022/10/19 11:31:06;;;;;;;4.55;1.65;;;13.60;99.90;;;;;;4972283;28;20122;-88
2022/10/19 11:33:42;;;;;;;3.05;1.33;;;13.60;99.90;;;;;;4971037;28;20050;-87
2022/10/19 11:36:29;;;;;;;7.07;1.95;;;13.50;99.90;;;;;;4971198;28;20183;-87
2022/10/19 11:39:10;;;;;;;8.35;2.00;;;13.50;99.90;;;;;;4970759;28;20078;-88
2022/10/19 11:42:15;;;;;;;5.85;1.40;;;13.50;99.90;;;;;;4970943;28;20051;-87
2022/10/19 11:44:58;;;;;;;4.85;1.52;;;13.50;99.90;;;;;;4977780;28;20064;-86
2022/10/19 11:48:04;;;;;;;8.00;1.33;;;13.50;99.90;;;;;;4989463;28;20050;-88
2022/10/19 11:50:53;;;;;;;7.80;1.52;;;13.50;99.90;;;;;;4988757;28;20051;-87
2022/10/19 11:53:34;;;;;;;4.00;1.52;;;13.50;99.90;;;;;;4971126;28;20456;-87
2022/10/19 11:56:12;;;;;;;4.15;1.38;;;13.60;99.90;;;;;;4971004;28;20043;-88
2022/10/19 11:58:58;;;;;;;7.38;1.70;;;13.60;99.90;;;;;;4970200;28;20141;-88
2022/10/19 12:01:27;;;;;;;10.68;1.30;;;13.70;99.90;;;;;;4997932;28;20131;-89
2022/10/19 12:04:11;;;;;;;5.60;1.23;;;14.10;99.90;;;;;;4987117;28;20057;-86
2022/10/19 12:06:58;;;;;;;4.65;1.13;;;13.70;99.90;;;;;;4974422;28;20056;-86
2022/10/19 12:09:50;;;;;;;9.45;1.50;;;13.70;99.90;;;;;;4969999;28;20051;-86
2022/10/19 12:12:22;;;;;;;4.47;1.33;;;13.60;99.90;;;;;;4953437;28;20086;-86
2022/10/19 12:14:50;;;;;;;;;;;13.60;99.90;;;;;;4970887;28;20104;-87
2022/10/19 12:17:37;;;;;;;9.30;1.70;;;13.70;99.90;;;;;;4954161;28;20002;-88
2022/10/19 12:20:15;;;;;;;6.90;1.58;;;13.70;99.90;;;;;;4969175;28;20130;-87
2022/10/19 12:22:42;;;;;;;7.60;1.58;;;13.70;99.90;;;;;;4970158;28;20050;-88
2022/10/19 12:25:13;;;;;;;6.40;1.80;;;13.80;99.90;;;;;;4953868;28;20051;-87
2022/10/19 12:27:40;;;;;;;5.57;1.20;;;13.80;99.90;;;;;;4953474;28;20042;-87
2022/10/19 12:30:12;;;;;;;6.35;1.67;;;13.90;99.90;;;;;;4984324;28;20054;-85
2022/10/19 12:32:54;;;;;;;10.07;1.80;;;13.90;99.90;;;;;;4989666;28;20057;-86
2022/10/19 12:35:30;;;;;;;4.07;1.27;;;14.30;99.90;;;;;;4987945;28;20083;-86
2022/10/19 12:38:12;;;;;;;8.48;1.38;;;13.80;99.90;;;;;;4969897;28;20086;-86
2022/10/19 12:40:44;;;;;;;8.73;1.55;;;13.80;99.90;;;;;;4982103;28;20130;-84
2022/10/19 12:43:14;;;;;;;;;;;13.90;99.90;;;;;;4970961;28;20093;-86
2022/10/19 12:46:38;;;;;;;6.90;1.60;;;13.60;99.90;;;;;;4966542;28;19922;-86
2022/10/19 12:49:43;;;;;;;5.72;1.20;;;13.60;99.90;;;;;;4964602;28;20094;-86
2022/10/19 12:52:09;;;;;;;4.30;1.40;;;13.70;99.90;;;;;;4932482;29;20161;-87
2022/10/19 12:54:38;;;;;;;3.05;1.33;;;13.80;99.90;;;;;;4977047;28;20577;-87
2022/10/19 12:57:26;;;;;;;7.22;1.50;;;13.90;99.90;;;;;;4969230;28;20047;-87
2022/10/19 13:00:17;;;;;;;5.97;2.03;;;14.00;99.90;;;;;;4977620;28;20109;-87
2022/10/19 13:02:44;;;;;;;5.85;2.00;;;13.90;99.90;;;;;;4992550;28;20077;-86
2022/10/19 13:05:19;;;;;;;7.40;2.33;;;13.90;99.90;;;;;;4976867;28;20509;-87
2022/10/19 13:07:48;;;;;;;9.07;2.00;;;13.90;99.90;;;;;;4981329;28;20058;-86
2022/10/19 13:10:21;;;;;;;6.82;1.77;;;13.90;99.90;;;;;;4988151;28;20104;-87
2022/10/19 13:12:47;;;;;;;;;;;13.80;99.90;;;;;;4989039;28;20038;-87
2022/10/19 13:15:32;;;;;;;8.68;2.03;;;13.70;99.90;;;;;;4988953;28;20423;-87